createdAt,value
2022-09-26T00:01:55.546Z,12.05
2022-09-26T00:04:31.780Z,12.02
2022-09-26T00:07:01.341Z,11.98
2022-09-26T00:09:30.052Z,11.96
2022-09-26T00:11:59.071Z,11.94
2022-09-26T00:14:29.156Z,11.93
2022-09-26T00:16:57.676Z,11.92
2022-09-26T00:19:26.187Z,11.90
2022-09-26T00:21:54.752Z,11.90
2022-09-26T00:24:23.267Z,11.89
2022-09-26T00:26:51.860Z,11.86
2022-09-26T00:29:20.320Z,11.83
2022-09-26T00:31:48.962Z,11.81
2022-09-26T00:34:19.615Z,11.80
2022-09-26T00:36:50.065Z,11.78
2022-09-26T00:39:18.672Z,11.76
2022-09-26T00:41:47.173Z,11.74
2022-09-26T00:44:36.888Z,11.73
2022-09-26T00:47:17.077Z,11.71
2022-09-26T00:49:47.358Z,11.68
2022-09-26T00:52:22.475Z,11.68
2022-09-26T00:54:55.786Z,11.70
2022-09-26T00:57:28.478Z,11.70
2022-09-26T01:00:01.231Z,11.70
2022-09-26T01:02:30.042Z,11.69
2022-09-26T01:04:59.905Z,11.66
2022-09-26T01:07:29.476Z,11.61
2022-09-26T01:09:58.870Z,11.58
2022-09-26T01:12:27.880Z,11.57
2022-09-26T01:14:57.925Z,11.56
2022-09-26T01:17:27.311Z,11.55
2022-09-26T01:20:17.020Z,11.53
2022-09-26T01:23:07.844Z,11.48
2022-09-26T01:26:05.731Z,11.44
2022-09-26T01:28:53.803Z,11.43
2022-09-26T01:31:28.503Z,11.44
2022-09-26T01:34:04.392Z,11.44
2022-09-26T01:36:48.144Z,11.45
2022-09-26T01:39:30.741Z,11.46
2022-09-26T01:42:14.246Z,11.48
2022-09-26T01:44:48.797Z,11.49
2022-09-26T01:47:22.792Z,11.48
2022-09-26T01:49:58.079Z,11.50
2022-09-26T01:52:32.887Z,11.51
2022-09-26T01:55:07.931Z,11.52
2022-09-26T01:57:40.902Z,11.51
2022-09-26T02:00:12.210Z,11.50
2022-09-26T02:02:45.481Z,11.52
2022-09-26T02:05:20.340Z,11.53
2022-09-26T02:07:55.177Z,11.52
2022-09-26T02:10:28.791Z,11.52
2022-09-26T02:13:03.146Z,11.52
2022-09-26T02:15:36.289Z,11.51
2022-09-26T02:18:12.412Z,11.52
2022-09-26T02:20:47.850Z,11.53
2022-09-26T02:23:16.563Z,11.54
2022-09-26T02:25:45.075Z,11.53
2022-09-26T02:28:14.000Z,11.50
2022-09-26T02:30:46.402Z,11.47
2022-09-26T02:33:15.914Z,11.46
2022-09-26T02:35:56.968Z,11.47
2022-09-26T02:38:30.977Z,11.48
2022-09-26T02:41:21.968Z,11.49
2022-09-26T02:44:05.365Z,11.49
2022-09-26T02:46:53.445Z,11.49
2022-09-26T02:49:44.721Z,11.49
2022-09-26T02:52:21.190Z,11.48
2022-09-26T02:55:03.930Z,11.47
2022-09-26T02:57:44.299Z,11.42
2022-09-26T03:00:18.080Z,11.38
2022-09-26T03:02:55.161Z,11.35
2022-09-26T03:05:27.339Z,11.31
2022-09-26T03:08:00.781Z,11.29
2022-09-26T03:10:32.071Z,11.26
2022-09-26T03:13:06.412Z,11.23
2022-09-26T03:15:37.204Z,11.20
2022-09-26T03:18:09.884Z,11.15
2022-09-26T03:20:38.487Z,11.10
2022-09-26T03:23:07.188Z,11.05
2022-09-26T03:25:36.244Z,11.03
2022-09-26T03:28:07.106Z,11.01
2022-09-26T03:30:35.648Z,10.98
2022-09-26T03:33:23.307Z,10.96
2022-09-26T03:35:52.331Z,10.96
2022-09-26T03:38:22.109Z,10.95
2022-09-26T03:40:58.306Z,10.95
2022-09-26T03:43:45.507Z,10.94
2022-09-26T03:46:15.134Z,10.92
2022-09-26T03:48:43.732Z,10.92
2022-09-26T03:51:13.739Z,10.90
2022-09-26T03:53:44.860Z,10.87
2022-09-26T03:56:17.686Z,10.85
2022-09-26T03:58:48.398Z,10.84
2022-09-26T04:01:19.984Z,10.82
2022-09-26T04:03:51.097Z,10.79
2022-09-26T04:06:21.739Z,10.78
2022-09-26T04:08:52.242Z,10.75
2022-09-26T04:11:24.090Z,10.73
2022-09-26T04:13:53.491Z,10.71
2022-09-26T04:16:24.543Z,10.69
2022-09-26T04:19:01.366Z,10.69
2022-09-26T04:21:30.513Z,10.67
2022-09-26T04:24:00.639Z,10.65
2022-09-26T04:26:29.238Z,10.65
2022-09-26T04:28:58.445Z,10.66
2022-09-26T04:31:42.001Z,10.67
2022-09-26T04:34:14.301Z,10.66
2022-09-26T04:36:43.116Z,10.65
2022-09-26T04:39:12.832Z,10.65
2022-09-26T04:41:41.758Z,10.65
2022-09-26T04:44:12.124Z,10.68
2022-09-26T04:46:40.740Z,10.71
2022-09-26T04:49:10.548Z,10.73
2022-09-26T04:51:39.123Z,10.77
2022-09-26T04:54:07.974Z,10.80
2022-09-26T04:56:40.046Z,10.83
2022-09-26T04:59:09.283Z,10.87
2022-09-26T05:01:45.751Z,10.89
2022-09-26T05:04:26.652Z,10.92
2022-09-26T05:06:58.589Z,10.95
2022-09-26T05:09:34.282Z,10.98
2022-09-26T05:12:17.581Z,11.00
2022-09-26T05:14:47.423Z,11.05
2022-09-26T05:17:16.003Z,11.10
2022-09-26T05:19:45.631Z,11.17
2022-09-26T05:22:40.200Z,11.23
2022-09-26T05:25:28.505Z,11.30
2022-09-26T05:27:57.037Z,11.46
2022-09-26T05:30:30.580Z,11.55
2022-09-26T05:32:59.194Z,11.65
2022-09-26T05:35:27.713Z,11.73
2022-09-26T05:38:00.070Z,11.81
2022-09-26T05:41:02.006Z,11.88
2022-09-26T05:43:32.989Z,11.94
2022-09-26T05:46:03.904Z,12.02
2022-09-26T05:48:37.570Z,12.09
2022-09-26T05:51:11.856Z,12.18
2022-09-26T05:53:43.660Z,12.27
2022-09-26T05:56:18.262Z,12.40
2022-09-26T05:59:05.205Z,12.58
2022-09-26T06:01:36.590Z,12.83
2022-09-26T06:04:10.138Z,13.07
2022-09-26T06:06:48.134Z,13.35
2022-09-26T06:09:18.380Z,13.71
2022-09-26T06:12:05.532Z,14.27
2022-09-26T06:14:34.138Z,14.78
2022-09-26T06:17:02.656Z,15.31
2022-09-26T06:19:31.716Z,15.86
2022-09-26T06:22:00.278Z,16.44
2022-09-26T06:24:30.735Z,16.96
2022-09-26T06:27:01.624Z,17.43
2022-09-26T06:29:32.261Z,17.89
2022-09-26T06:32:01.431Z,18.19
2022-09-26T06:34:51.151Z,18.37
2022-09-26T06:37:44.423Z,18.37
2022-09-26T06:40:13.447Z,18.26
2022-09-26T06:42:46.143Z,18.12
2022-09-26T06:45:35.639Z,17.96
2022-09-26T06:48:18.952Z,17.90
2022-09-26T06:51:14.662Z,17.86
2022-09-26T06:53:45.336Z,17.88
2022-09-26T06:56:17.608Z,18.00
2022-09-26T06:58:46.266Z,18.20
2022-09-26T07:01:17.943Z,18.38
2022-09-26T07:04:03.969Z,18.48
2022-09-26T07:06:51.257Z,18.48
2022-09-26T07:09:20.171Z,18.46
2022-09-26T07:12:15.575Z,18.43
2022-09-26T07:14:45.753Z,18.41
2022-09-26T07:17:21.408Z,18.38
2022-09-26T07:20:10.537Z,18.32
2022-09-26T07:23:01.383Z,18.27
2022-09-26T07:25:31.024Z,18.27
2022-09-26T07:28:00.915Z,18.43
2022-09-26T07:30:38.408Z,18.94
2022-09-26T07:33:36.424Z,19.55
2022-09-26T07:36:10.203Z,20.19
2022-09-26T07:38:39.042Z,20.74
2022-09-26T07:41:10.201Z,21.10
2022-09-26T07:44:53.344Z,21.31
2022-09-26T07:46:45.111Z,21.50
2022-09-26T07:49:31.864Z,21.76
2022-09-26T07:52:32.962Z,21.84
2022-09-26T07:55:21.753Z,21.67
2022-09-26T07:58:06.583Z,21.52
2022-09-26T08:00:46.231Z,21.35
2022-09-26T08:03:28.028Z,21.18
2022-09-26T08:06:00.439Z,21.00
2022-09-26T08:08:30.249Z,20.77
2022-09-26T08:11:04.051Z,20.58
2022-09-26T08:13:46.059Z,20.37
2022-09-26T08:16:41.246Z,20.15
2022-09-26T08:19:12.967Z,20.00
2022-09-26T08:21:40.781Z,19.88
2022-09-26T08:24:09.724Z,19.67
2022-09-26T08:26:56.430Z,19.47
2022-09-26T08:29:31.482Z,19.36
2022-09-26T08:32:03.458Z,19.28
2022-09-26T08:34:34.949Z,19.11
2022-09-26T08:37:27.611Z,18.95
2022-09-26T08:40:14.269Z,18.74
2022-09-26T08:43:36.845Z,18.49
2022-09-26T08:46:46.151Z,18.29
2022-09-26T08:50:03.192Z,18.19
2022-09-26T08:52:37.165Z,18.15
2022-09-26T08:55:13.309Z,18.15
2022-09-26T08:57:44.995Z,18.14
2022-09-26T09:00:21.013Z,18.11
2022-09-26T09:03:07.829Z,18.01
2022-09-26T09:05:40.493Z,17.98
2022-09-26T09:08:14.622Z,17.98
2022-09-26T09:11:03.110Z,18.01
2022-09-26T09:13:46.584Z,18.12
2022-09-26T09:16:44.894Z,18.36
2022-09-26T09:19:41.342Z,18.70
2022-09-26T09:22:38.248Z,18.99
2022-09-26T09:25:16.463Z,19.26
2022-09-26T09:28:08.433Z,19.58
2022-09-26T09:30:43.649Z,19.91
2022-09-26T09:33:16.991Z,20.14
2022-09-26T09:36:08.708Z,20.39
2022-09-26T09:38:47.977Z,20.45
2022-09-26T09:41:35.225Z,20.52
2022-09-26T09:44:14.955Z,20.63
2022-09-26T09:46:43.904Z,20.63
2022-09-26T09:49:19.716Z,20.61
2022-09-26T09:52:10.375Z,20.53
2022-09-26T09:54:55.268Z,20.33
2022-09-26T09:57:54.342Z,20.32
2022-09-26T10:00:24.596Z,20.44
2022-09-26T10:03:04.662Z,20.54
2022-09-26T10:05:41.043Z,20.63
2022-09-26T10:08:13.798Z,20.64
2022-09-26T10:11:12.211Z,20.61
2022-09-26T10:14:02.690Z,20.65
2022-09-26T10:17:19.871Z,20.65
2022-09-26T10:20:27.283Z,20.61
2022-09-26T10:22:56.213Z,20.58
2022-09-26T10:25:26.753Z,20.58
2022-09-26T10:27:58.642Z,20.62
2022-09-26T10:30:33.518Z,20.77
2022-09-26T10:33:05.601Z,20.88
2022-09-26T10:35:46.808Z,20.87
2022-09-26T10:38:21.547Z,20.76
2022-09-26T10:40:59.004Z,20.68
2022-09-26T10:43:30.240Z,20.59
2022-09-26T10:46:09.104Z,20.61
2022-09-26T10:49:18.337Z,20.66
2022-09-26T10:52:17.585Z,20.50
2022-09-26T10:54:54.701Z,20.35
2022-09-26T10:57:29.091Z,20.17
2022-09-26T11:00:00.454Z,20.02
2022-09-26T11:02:29.324Z,19.89
2022-09-26T11:05:18.388Z,19.77
2022-09-26T11:08:13.511Z,19.68
2022-09-26T11:10:55.310Z,19.66
2022-09-26T11:13:45.845Z,19.69
2022-09-26T11:16:18.553Z,19.70
2022-09-26T11:18:56.532Z,19.61
2022-09-26T11:21:33.046Z,19.49
2022-09-26T11:24:10.949Z,19.39
2022-09-26T11:26:49.003Z,19.35
2022-09-26T11:29:24.498Z,19.34
2022-09-26T11:32:23.598Z,19.35
2022-09-26T11:35:01.717Z,19.36
2022-09-26T11:38:04.874Z,19.35
2022-09-26T11:41:06.828Z,19.31
2022-09-26T11:43:51.211Z,19.29
2022-09-26T11:46:49.681Z,19.25
2022-09-26T11:50:02.219Z,19.26
2022-09-26T11:52:58.867Z,19.19
2022-09-26T11:55:36.589Z,19.15
2022-09-26T11:58:16.650Z,19.14
2022-09-26T12:00:56.332Z,19.14
2022-09-26T12:03:45.010Z,19.14
2022-09-26T12:06:25.223Z,19.12
2022-09-26T12:09:11.577Z,19.12
2022-09-26T12:11:52.542Z,19.11
2022-09-26T12:14:38.354Z,19.11
2022-09-26T12:17:14.384Z,19.10
2022-09-26T12:19:51.719Z,19.07
2022-09-26T12:22:30.367Z,19.05
2022-09-26T12:25:16.638Z,19.02
2022-09-26T12:27:58.695Z,18.94
2022-09-26T12:30:35.170Z,18.79
2022-09-26T12:33:20.418Z,18.61
2022-09-26T12:35:58.309Z,18.38
2022-09-26T12:38:41.915Z,18.10
2022-09-26T12:41:50.088Z,17.91
2022-09-26T12:44:34.143Z,17.76
2022-09-26T12:47:15.014Z,17.64
2022-09-26T12:50:01.008Z,17.50
2022-09-26T12:52:51.088Z,17.37
2022-09-26T12:55:31.597Z,17.20
2022-09-26T12:58:11.247Z,17.05
2022-09-26T13:00:48.708Z,16.94
2022-09-26T13:03:35.842Z,16.90
2022-09-26T13:06:33.567Z,16.87
2022-09-26T13:09:15.291Z,16.82
2022-09-26T13:11:54.910Z,16.77
2022-09-26T13:14:48.147Z,16.74
2022-09-26T13:17:21.187Z,16.65
2022-09-26T13:19:55.437Z,16.53
2022-09-26T13:22:36.115Z,16.43
2022-09-26T13:25:18.270Z,16.30
2022-09-26T13:27:55.568Z,16.13
2022-09-26T13:30:28.169Z,16.03
2022-09-26T13:33:02.808Z,15.97
2022-09-26T13:35:35.237Z,15.93
2022-09-26T13:38:34.034Z,15.85
2022-09-26T13:41:14.972Z,15.77
2022-09-26T13:43:52.926Z,15.73
2022-09-26T13:46:30.611Z,15.72
2022-09-26T13:49:12.996Z,15.71
2022-09-26T13:51:51.080Z,15.64
2022-09-26T13:54:27.680Z,15.56
2022-09-26T13:57:00.093Z,15.46
2022-09-26T13:59:51.719Z,15.36
2022-09-26T14:02:24.037Z,15.34
2022-09-26T14:05:17.064Z,15.39
2022-09-26T14:08:12.593Z,15.47
2022-09-26T14:10:52.599Z,15.54
2022-09-26T14:13:33.936Z,15.58
2022-09-26T14:16:04.777Z,15.57
2022-09-26T14:18:51.582Z,15.50
2022-09-26T14:21:35.798Z,15.43
2022-09-26T14:24:33.110Z,15.35
2022-09-26T14:27:24.612Z,15.33
2022-09-26T14:29:58.390Z,15.37
2022-09-26T14:32:39.906Z,15.41
2022-09-26T14:35:20.800Z,15.44
2022-09-26T14:37:55.016Z,15.47
2022-09-26T14:40:31.487Z,15.50
2022-09-26T14:43:12.328Z,15.52
2022-09-26T14:45:51.529Z,15.53
2022-09-26T14:48:31.942Z,15.54
2022-09-26T14:51:04.234Z,15.55
2022-09-26T14:53:42.837Z,15.55
2022-09-26T14:56:15.731Z,15.55
2022-09-26T14:58:50.309Z,15.56
2022-09-26T15:01:28.132Z,15.53
2022-09-26T15:04:04.496Z,15.54
2022-09-26T15:06:41.999Z,15.55
2022-09-26T15:09:18.523Z,15.54
2022-09-26T15:11:51.982Z,15.54
2022-09-26T15:14:36.040Z,15.55
2022-09-26T15:17:06.574Z,15.55
2022-09-26T15:19:42.153Z,15.53
2022-09-26T15:22:16.270Z,15.54
2022-09-26T15:25:22.906Z,15.57
2022-09-26T15:27:53.740Z,15.61
2022-09-26T15:30:26.383Z,15.60
2022-09-26T15:32:57.840Z,15.63
2022-09-26T15:35:27.355Z,15.63
2022-09-26T15:38:00.068Z,15.66
2022-09-26T15:40:30.860Z,15.69
2022-09-26T15:43:09.051Z,15.70
2022-09-26T15:45:57.821Z,15.72
2022-09-26T15:48:29.079Z,15.72
2022-09-26T15:51:03.449Z,15.70
2022-09-26T15:53:36.790Z,15.69
2022-09-26T15:56:09.182Z,15.67
2022-09-26T15:58:43.740Z,15.67
2022-09-26T16:01:16.865Z,15.64
2022-09-26T16:03:56.592Z,15.61
2022-09-26T16:06:29.002Z,15.57
2022-09-26T16:09:06.760Z,15.52
2022-09-26T16:11:46.960Z,15.48
2022-09-26T16:14:26.059Z,15.41
2022-09-26T16:17:02.357Z,15.35
2022-09-26T16:19:34.598Z,15.28
2022-09-26T16:22:44.720Z,15.20
2022-09-26T16:25:33.821Z,15.12
2022-09-26T16:28:39.300Z,15.04
2022-09-26T16:31:22.581Z,14.93
2022-09-26T16:33:53.558Z,14.82
2022-09-26T16:36:23.940Z,14.75
2022-09-26T16:38:57.667Z,14.70
2022-09-26T16:41:59.960Z,14.65
2022-09-26T16:44:26.122Z,14.57
2022-09-26T16:47:01.268Z,14.47
2022-09-26T16:49:41.579Z,14.41
2022-09-26T16:52:20.149Z,14.33
2022-09-26T16:54:50.849Z,14.22
2022-09-26T16:57:22.319Z,14.12
2022-09-26T16:59:52.333Z,14.01
2022-09-26T17:02:21.933Z,13.92
2022-09-26T17:04:53.531Z,13.88
2022-09-26T17:07:23.410Z,13.85
2022-09-26T17:09:51.972Z,13.78
2022-09-26T17:12:22.109Z,13.71
2022-09-26T17:14:52.588Z,13.66
2022-09-26T17:17:25.185Z,13.61
2022-09-26T17:19:59.172Z,13.57
2022-09-26T17:22:28.920Z,13.53
2022-09-26T17:24:58.740Z,13.49
2022-09-26T17:27:33.572Z,13.43
2022-09-26T17:30:04.266Z,13.35
2022-09-26T17:32:36.184Z,13.24
2022-09-26T17:35:12.820Z,13.15
2022-09-26T17:37:41.453Z,13.09
2022-09-26T17:40:16.513Z,13.03
2022-09-26T17:42:45.316Z,12.98
2022-09-26T17:45:14.192Z,12.94
2022-09-26T17:47:42.972Z,12.90
2022-09-26T17:50:19.300Z,12.85
2022-09-26T17:52:47.899Z,12.82
2022-09-26T17:55:18.205Z,12.79
2022-09-26T17:57:46.846Z,12.75
2022-09-26T18:00:18.838Z,12.73
2022-09-26T18:02:52.479Z,12.70
2022-09-26T18:05:25.123Z,12.67
2022-09-26T18:07:57.296Z,12.63
2022-09-26T18:10:29.888Z,12.58
2022-09-26T18:13:03.292Z,12.50
2022-09-26T18:15:31.929Z,12.42
2022-09-26T18:18:01.708Z,12.30
2022-09-26T18:20:36.495Z,12.22
2022-09-26T18:23:06.784Z,12.16
2022-09-26T18:25:51.108Z,12.11
2022-09-26T18:28:22.779Z,12.04
2022-09-26T18:30:58.422Z,12.02
2022-09-26T18:33:28.337Z,11.99
2022-09-26T18:35:58.219Z,11.97
2022-09-26T18:38:30.359Z,11.91
2022-09-26T18:41:00.003Z,11.87
2022-09-26T18:43:31.192Z,11.86
2022-09-26T18:46:00.034Z,11.88
2022-09-26T18:48:33.257Z,11.88
2022-09-26T18:51:02.728Z,11.88
2022-09-26T18:53:36.460Z,11.87
2022-09-26T18:56:23.801Z,11.86
2022-09-26T18:58:53.466Z,11.83
2022-09-26T19:01:27.535Z,11.82
2022-09-26T19:04:00.410Z,11.78
2022-09-26T19:06:54.175Z,11.74
2022-09-26T19:09:24.393Z,11.69
2022-09-26T19:11:53.142Z,11.65
2022-09-26T19:14:24.629Z,11.64
2022-09-26T19:16:54.421Z,11.62
2022-09-26T19:19:23.624Z,11.59
2022-09-26T19:21:55.211Z,11.57
2022-09-26T19:24:32.144Z,11.53
2022-09-26T19:27:06.213Z,11.45
2022-09-26T19:29:39.977Z,11.36
2022-09-26T19:32:18.788Z,11.27
2022-09-26T19:34:51.117Z,11.22
2022-09-26T19:37:19.919Z,11.18
2022-09-26T19:39:48.691Z,11.16
2022-09-26T19:42:17.806Z,11.17
2022-09-26T19:44:54.084Z,11.17
2022-09-26T19:47:35.297Z,11.17
2022-09-26T19:50:18.079Z,11.15
2022-09-26T19:52:50.140Z,11.10
2022-09-26T19:55:26.818Z,11.06
2022-09-26T19:58:17.336Z,11.02
2022-09-26T20:00:49.154Z,10.96
2022-09-26T20:03:19.653Z,10.91
2022-09-26T20:05:52.324Z,10.88
2022-09-26T20:08:27.919Z,10.86
2022-09-26T20:10:58.592Z,10.84
2022-09-26T20:13:47.583Z,10.81
2022-09-26T20:16:16.404Z,10.78
2022-09-26T20:18:46.006Z,10.74
2022-09-26T20:21:17.205Z,10.70
2022-09-26T20:23:46.746Z,10.66
2022-09-26T20:26:16.632Z,10.61
2022-09-26T20:28:45.361Z,10.58
2022-09-26T20:31:22.051Z,10.56
2022-09-26T20:33:51.564Z,10.54
2022-09-26T20:36:24.690Z,10.52
2022-09-26T20:38:55.247Z,10.51
2022-09-26T20:41:28.829Z,10.51
2022-09-26T20:44:01.438Z,10.49
2022-09-26T20:46:33.374Z,10.47
2022-09-26T20:49:24.610Z,10.43
2022-09-26T20:51:53.262Z,10.42
2022-09-26T20:54:29.345Z,10.41
2022-09-26T20:56:58.758Z,10.37
2022-09-26T20:59:28.647Z,10.36
2022-09-26T21:01:59.082Z,10.37
2022-09-26T21:04:31.468Z,10.36
2022-09-26T21:07:00.071Z,10.34
2022-09-26T21:09:28.700Z,10.33
2022-09-26T21:11:57.337Z,10.34
2022-09-26T21:14:25.863Z,10.34
2022-09-26T21:16:55.111Z,10.33
2022-09-26T21:19:27.149Z,10.35
2022-09-26T21:22:02.899Z,10.36
2022-09-26T21:24:44.741Z,10.36
2022-09-26T21:27:13.776Z,10.37
2022-09-26T21:29:42.906Z,10.36
2022-09-26T21:32:16.725Z,10.36
2022-09-26T21:34:55.766Z,10.37
2022-09-26T21:37:30.675Z,10.40
2022-09-26T21:39:59.456Z,10.40
2022-09-26T21:42:28.067Z,10.40
2022-09-26T21:45:02.013Z,10.41
2022-09-26T21:47:30.925Z,10.39
2022-09-26T21:49:59.676Z,10.39
2022-09-26T21:52:35.118Z,10.36
2022-09-26T21:55:06.022Z,10.34
2022-09-26T21:57:38.012Z,10.31
2022-09-26T22:00:09.472Z,10.25
2022-09-26T22:02:42.153Z,10.21
2022-09-26T22:05:12.149Z,10.18
2022-09-26T22:07:40.655Z,10.18
2022-09-26T22:10:09.829Z,10.17
2022-09-26T22:12:38.331Z,10.14
2022-09-26T22:15:09.206Z,10.12
2022-09-26T22:17:37.820Z,10.08
2022-09-26T22:20:07.808Z,10.06
2022-09-26T22:22:37.105Z,10.05
2022-09-26T22:25:07.221Z,10.04
2022-09-26T22:27:35.971Z,10.01
2022-09-26T22:30:05.960Z,9.96
2022-09-26T22:32:34.757Z,9.93
2022-09-26T22:35:04.094Z,9.91
2022-09-26T22:37:33.172Z,9.91
2022-09-26T22:40:02.724Z,9.91
2022-09-26T22:42:31.732Z,9.89
2022-09-26T22:45:00.197Z,9.87
2022-09-26T22:47:28.877Z,9.85
2022-09-26T22:49:57.756Z,9.84
2022-09-26T22:52:26.358Z,9.83
2022-09-26T22:54:55.539Z,9.82
2022-09-26T22:57:24.139Z,9.80
2022-09-26T22:59:52.763Z,9.77
2022-09-26T23:02:21.323Z,9.70
2022-09-26T23:04:50.229Z,9.64
2022-09-26T23:07:19.934Z,9.58
2022-09-26T23:09:48.695Z,9.51
2022-09-26T23:12:18.351Z,9.44
2022-09-26T23:14:46.991Z,9.41
2022-09-26T23:17:16.150Z,9.39
2022-09-26T23:19:45.161Z,9.35
2022-09-26T23:22:14.711Z,9.32
2022-09-26T23:24:43.324Z,9.29
2022-09-26T23:27:11.926Z,9.25
2022-09-26T23:29:41.125Z,9.22
2022-09-26T23:32:09.693Z,9.20
2022-09-26T23:34:38.261Z,9.15
2022-09-26T23:37:06.834Z,9.12
2022-09-26T23:39:35.433Z,9.09
2022-09-26T23:42:04.702Z,9.06
2022-09-26T23:44:34.312Z,9.06
2022-09-26T23:47:03.643Z,9.06
2022-09-26T23:49:32.241Z,9.06
2022-09-26T23:52:01.619Z,9.06
2022-09-26T23:54:30.498Z,9.03
2022-09-26T23:56:59.907Z,9.01
2022-09-26T23:59:28.585Z,8.99
